Time;durP1;ratioP1;P1;durP2;ratioP2;P2;SDS_P1;SDS_P2;PMS_P1;PMS_P2;Temp;Humidity;BMP_temperature;BMP_pressure;BME280_temperature;BME280_humidity;BME280_pressure;Samples;Min_cycle;Max_cycle;Signal;HPM_P1;HPM_P2
2024/03/28 20:03:11;;;;;;;1.50;0.10;;;;;;;11.41;52.35;98413.14;104744;1304;543499;-85
2024/03/28 20:06:16;;;;;;;0.90;0.10;;;;;;;11.39;52.53;98417.02;107975;1278;25405;-87
2024/03/28 20:09:12;;;;;;;1.20;0.20;;;;;;;11.37;52.78;98426.09;107987;1274;22535;-85
2024/03/28 20:12:13;;;;;;;1.00;0.10;;;;;;;11.35;52.88;98434.35;108250;1273;24274;-85
2024/03/28 20:15:09;;;;;;;1.10;0.30;;;;;;;11.31;52.93;98437.95;108477;1272;22543;-86
2024/03/28 20:18:06;;;;;;;2.50;0.50;;;;;;;11.29;52.93;98433.37;108117;1272;180367;-87
2024/03/28 20:21:06;;;;;;;3.40;0.30;;;;;;;11.27;53.22;98439.14;108662;1272;23817;-88
2024/03/28 20:23:57;;;;;;;3.10;0.40;;;;;;;11.25;53.00;98435.04;108106;1269;24168;-86
2024/03/28 20:26:48;;;;;;;2.40;0.30;;;;;;;11.23;53.20;98437.11;108388;1268;23159;-86
2024/03/28 20:29:43;;;;;;;1.60;0.30;;;;;;;11.20;53.41;98444.80;108288;1272;25259;-86
2024/03/28 20:32:38;;;;;;;3.70;0.20;;;;;;;11.17;53.56;98455.71;108863;1268;22623;-86
2024/03/28 20:35:31;;;;;;;2.10;0.40;;;;;;;11.11;53.56;98459.20;108826;1268;23300;-87
2024/03/28 20:38:24;;;;;;;1.90;0.30;;;;;;;11.08;53.78;98465.21;109343;1244;22595;-85
2024/03/28 20:41:15;;;;;;;3.10;0.50;;;;;;;11.06;54.10;98465.43;109468;1268;25278;-85
2024/03/28 20:44:12;;;;;;;2.30;0.30;;;;;;;11.04;54.31;98467.60;109286;1268;22543;-86
2024/03/28 20:47:12;;;;;;;6.00;0.60;;;;;;;11.00;54.38;98470.32;109336;1262;22664;-85
2024/03/28 20:50:04;;;;;;;;;;;;;;;10.98;54.50;98476.55;109327;1268;22511;-86
2024/03/28 20:52:56;;;;;;;2.90;0.50;;;;;;;10.95;54.80;98483.33;109130;1265;22552;-86
2024/03/28 20:55:49;;;;;;;4.40;0.80;;;;;;;10.92;54.95;98487.02;109310;1262;23128;-84
2024/03/28 20:58:40;;;;;;;2.60;0.50;;;;;;;10.89;55.19;98489.63;109396;1268;25263;-85
2024/03/28 21:01:31;;;;;;;4.00;0.50;;;;;;;10.86;55.54;98493.98;109442;1255;22682;-83
2024/03/28 21:04:24;;;;;;;2.20;0.40;;;;;;;10.84;55.67;98491.92;109391;1268;22544;-83
2024/03/28 21:13:33;;;;;;;29.90;15.10;;;;;;;10.74;56.41;98517.80;109621;1262;23317;-83
2024/03/28 21:16:24;;;;;;;11.10;2.90;;;;;;;10.72;56.75;98530.16;109460;1266;22519;-83
2024/03/28 21:19:18;;;;;;;6.10;1.20;;;;;;;10.69;57.00;98534.86;109606;1267;22943;-84
2024/03/28 21:22:10;;;;;;;6.50;0.90;;;;;;;10.67;57.14;98534.92;109527;1267;25367;-84
2024/03/28 21:25:01;;;;;;;5.80;1.00;;;;;;;10.65;57.46;98542.04;109600;1267;25355;-83
2024/03/28 21:27:53;;;;;;;2.70;0.70;;;;;;;10.63;57.67;98550.52;109758;1268;25215;-84
2024/03/28 21:30:45;;;;;;;4.80;0.70;;;;;;;10.61;57.88;98556.02;109192;1268;22691;-83
2024/03/28 21:33:35;;;;;;;2.10;0.50;;;;;;;10.60;57.99;98563.13;109717;1267;23691;-84
2024/03/28 21:36:27;;;;;;;4.00;0.70;;;;;;;10.57;58.15;98568.08;109258;1260;24318;-84
2024/03/28 21:39:18;;;;;;;3.50;0.50;;;;;;;10.55;58.41;98579.56;109489;1262;22541;-85
2024/03/28 21:42:09;;;;;;;6.00;0.80;;;;;;;10.52;58.77;98586.27;109184;1258;22533;-84
2024/03/28 21:45:01;;;;;;;4.60;0.70;;;;;;;10.49;58.86;98593.75;109310;1264;22529;-85
2024/03/28 21:47:54;;;;;;;4.30;0.70;;;;;;;10.46;59.02;98597.33;109329;1244;22557;-86
2024/03/28 21:50:48;;;;;;;3.30;0.60;;;;;;;10.43;59.44;98600.29;108676;1267;22687;-84
2024/03/28 21:53:39;;;;;;;4.30;0.60;;;;;;;10.39;59.56;98596.98;109242;1267;25327;-84
2024/03/28 21:56:32;;;;;;;3.10;0.70;;;;;;;10.36;59.73;98596.39;109090;1264;22527;-84
2024/03/28 21:59:23;;;;;;;4.10;0.60;;;;;;;10.33;59.80;98601.67;108753;1268;24252;-84
2024/03/28 22:02:23;;;;;;;2.80;0.60;;;;;;;10.31;59.92;98604.93;108997;1268;23244;-85
2024/03/28 22:05:14;;;;;;;;;;;;;;;10.28;60.14;98610.63;108728;1267;25287;-83
2024/03/28 22:08:05;;;;;;;3.70;0.50;;;;;;;10.26;60.37;98616.98;108776;1267;23905;-84
2024/03/28 22:10:59;;;;;;;3.30;0.80;;;;;;;10.25;60.33;98615.91;109248;1267;22554;-85
2024/03/28 22:13:51;;;;;;;5.90;0.90;;;;;;;10.25;60.55;98614.25;109188;1268;22519;-85
2024/03/28 22:16:43;;;;;;;4.60;0.80;;;;;;;10.23;60.68;98624.04;108896;1267;22572;-86
2024/03/28 22:19:34;;;;;;;4.90;0.80;;;;;;;10.20;60.91;98632.42;108585;1267;24227;-84
2024/03/28 22:22:25;;;;;;;3.50;0.80;;;;;;;10.17;61.03;98638.17;108620;1251;24208;-85
2024/03/28 22:25:19;;;;;;;6.30;0.60;;;;;;;10.14;61.09;98642.65;108273;1260;25323;-85
2024/03/28 22:28:11;;;;;;;6.00;0.90;;;;;;;10.10;61.23;98649.80;108282;1260;24192;-86
2024/03/28 22:31:02;;;;;;;4.50;0.80;;;;;;;10.06;61.44;98654.73;108794;1267;24164;-85
2024/03/28 22:33:54;;;;;;;4.40;1.00;;;;;;;10.01;61.48;98659.31;107902;1268;22537;-85
2024/03/28 22:36:47;;;;;;;3.80;0.80;;;;;;;9.97;61.66;98664.35;108154;1268;24155;-85
2024/03/28 22:39:40;;;;;;;4.40;0.80;;;;;;;9.92;61.78;98669.02;108267;1268;22722;-84
2024/03/28 22:42:33;;;;;;;4.40;0.60;;;;;;;9.90;61.73;98668.16;108508;1267;25289;-84
2024/03/28 22:45:25;;;;;;;3.60;0.70;;;;;;;9.86;61.97;98672.98;108726;1267;22690;-84
2024/03/28 22:48:17;;;;;;;3.30;0.60;;;;;;;9.82;62.01;98680.22;108586;1268;23417;-85
2024/03/28 22:51:09;;;;;;;3.90;0.80;;;;;;;9.78;62.11;98683.66;108406;1268;22661;-84
2024/03/28 22:54:01;;;;;;;6.00;1.00;;;;;;;9.75;62.32;98693.39;108836;1268;25441;-84
2024/03/28 22:56:53;;;;;;;5.30;1.00;;;;;;;9.73;62.37;98697.26;108999;1267;22798;-86
2024/03/28 22:59:44;;;;;;;6.30;1.00;;;;;;;9.71;62.43;98707.39;108095;1267;22573;-85
2024/03/28 23:02:36;;;;;;;3.90;0.80;;;;;;;9.66;62.52;98716.47;109360;1265;25198;-85
2024/03/28 23:05:29;;;;;;;5.20;0.80;;;;;;;9.62;62.78;98719.92;108249;1268;22529;-84
2024/03/28 23:08:21;;;;;;;4.60;0.90;;;;;;;9.56;62.77;98726.52;109271;1267;22563;-85
2024/03/28 23:11:13;;;;;;;4.90;1.00;;;;;;;9.52;62.96;98734.98;109966;1264;22673;-87
2024/03/28 23:14:05;;;;;;;5.40;1.10;;;;;;;9.46;63.04;98741.92;110081;1265;22556;-86
2024/03/28 23:16:58;;;;;;;5.70;1.30;;;;;;;9.41;63.30;98746.99;108508;1262;23236;-85
2024/03/28 23:19:53;;;;;;;6.60;1.20;;;;;;;9.36;63.38;98753.42;108672;1265;25270;-85
2024/03/28 23:22:44;;;;;;;11.10;1.70;;;;;;;9.28;63.47;98758.89;109984;1267;24363;-86
2024/03/28 23:25:36;;;;;;;7.40;1.50;;;;;;;9.21;63.79;98765.02;108749;1260;22528;-85
2024/03/28 23:28:28;;;;;;;9.70;1.80;;;;;;;9.12;64.09;98774.10;108747;1260;25222;-85
2024/03/28 23:31:20;;;;;;;8.40;1.70;;;;;;;9.03;64.21;98780.89;108809;1267;25329;-85
2024/03/28 23:34:14;;;;;;;11.60;2.10;;;;;;;8.96;64.59;98789.16;108588;1267;22516;-85
2024/03/28 23:37:06;;;;;;;8.40;1.60;;;;;;;8.90;64.70;98799.58;108743;1267;22692;-86
2024/03/28 23:39:59;;;;;;;6.80;1.20;;;;;;;8.87;64.88;98801.09;108511;1268;25269;-85
2024/03/28 23:42:52;;;;;;;8.00;1.50;;;;;;;8.82;64.86;98805.38;108480;1268;22591;-85
2024/03/28 23:45:52;;;;;;;6.30;1.30;;;;;;;8.81;64.99;98810.69;109864;1268;22534;-85
2024/03/28 23:48:45;;;;;;;6.40;1.20;;;;;;;8.78;65.16;98815.07;108363;1268;22601;-84
2024/03/28 23:51:38;;;;;;;6.80;1.10;;;;;;;8.73;65.43;98823.91;108691;1268;23891;-83
2024/03/28 23:54:32;;;;;;;5.60;1.20;;;;;;;8.66;65.46;98825.01;108210;1267;24447;-84
2024/03/28 23:57:23;;;;;;;6.60;1.00;;;;;;;8.65;65.73;98828.19;108552;1263;24253;-84
